createdAt,value
2018-07-25T00:00:13.814Z,1007.45
2018-07-25T00:00:49.996Z,1007.45
2018-07-25T00:01:25.459Z,1007.43
2018-07-25T00:02:00.534Z,1007.47
2018-07-25T00:02:36.063Z,1007.45
2018-07-25T00:03:11.136Z,1007.47
2018-07-25T00:03:46.698Z,1007.46
2018-07-25T00:04:22.004Z,1007.45
2018-07-25T00:04:57.431Z,1007.46
2018-07-25T00:05:32.760Z,1007.47
2018-07-25T00:06:08.292Z,1007.50
2018-07-25T00:06:43.729Z,1007.50
2018-07-25T00:07:19.046Z,1007.50
2018-07-25T00:07:54.334Z,1007.51
2018-07-25T00:08:29.658Z,1007.48
2018-07-25T00:09:04.935Z,1007.49
2018-07-25T00:09:40.274Z,1007.51
2018-07-25T00:10:15.426Z,1007.49
2018-07-25T00:10:52.053Z,1007.54
2018-07-25T00:11:27.473Z,1007.51
2018-07-25T00:12:03.036Z,1007.51
2018-07-25T00:12:38.573Z,1007.46
2018-07-25T00:13:13.872Z,1007.48
2018-07-25T00:13:49.503Z,1007.48
2018-07-25T00:14:24.732Z,1007.50
2018-07-25T00:15:00.146Z,1007.49
2018-07-25T00:15:36.061Z,1007.48
2018-07-25T00:16:11.767Z,1007.47
2018-07-25T00:16:47.404Z,1007.48
2018-07-25T00:17:22.505Z,1007.47
2018-07-25T00:17:59.128Z,1007.46
2018-07-25T00:18:34.969Z,1007.46
2018-07-25T00:19:10.338Z,1007.50
2018-07-25T00:19:45.456Z,1007.46
2018-07-25T00:20:20.663Z,1007.47
2018-07-25T00:20:58.386Z,1007.48
2018-07-25T00:21:33.770Z,1007.48
2018-07-25T00:22:12.702Z,1007.49
2018-07-25T00:22:48.348Z,1007.48
2018-07-25T00:23:23.865Z,1007.49
2018-07-25T00:23:59.300Z,1007.48
2018-07-25T00:24:34.728Z,1007.52
2018-07-25T00:25:10.163Z,1007.47
2018-07-25T00:25:46.003Z,1007.50
2018-07-25T00:26:21.538Z,1007.48
2018-07-25T00:26:56.793Z,1007.51
2018-07-25T00:27:32.012Z,1007.50
2018-07-25T00:28:07.377Z,1007.49
2018-07-25T00:28:42.702Z,1007.51
2018-07-25T00:29:18.176Z,1007.54
2018-07-25T00:29:55.142Z,1007.50
2018-07-25T00:30:29.604Z,1007.52
2018-07-25T00:31:05.054Z,1007.51
2018-07-25T00:31:40.513Z,1007.53
2018-07-25T00:32:19.953Z,1007.47
2018-07-25T00:32:55.259Z,1007.49
2018-07-25T00:33:30.479Z,1007.49
2018-07-25T00:34:05.722Z,1007.50
2018-07-25T00:34:41.259Z,1007.45
2018-07-25T00:35:16.783Z,1007.47
2018-07-25T00:35:52.713Z,1007.47
2018-07-25T00:36:28.013Z,1007.48
2018-07-25T00:37:04.235Z,1007.49
2018-07-25T00:37:42.056Z,1007.47
2018-07-25T00:38:17.254Z,1007.47
2018-07-25T00:38:53.086Z,1007.46
2018-07-25T00:39:28.374Z,1007.48
2018-07-25T00:40:03.827Z,1007.45
2018-07-25T00:40:39.767Z,1007.48
2018-07-25T00:41:14.975Z,1007.44
2018-07-25T00:41:50.405Z,1007.44
2018-07-25T00:42:25.710Z,1007.44
2018-07-25T00:43:02.439Z,1007.42
2018-07-25T00:43:37.775Z,1007.45
2018-07-25T00:44:12.970Z,1007.44
2018-07-25T00:44:48.181Z,1007.44
2018-07-25T00:45:23.496Z,1007.45
2018-07-25T00:46:00.913Z,1007.42
2018-07-25T00:46:37.040Z,1007.42
2018-07-25T00:47:15.296Z,1007.46
2018-07-25T00:47:50.530Z,1007.46
2018-07-25T00:48:25.862Z,1007.44
2018-07-25T00:49:01.371Z,1007.41
2018-07-25T00:49:36.578Z,1007.41
2018-07-25T00:50:11.820Z,1007.38
2018-07-25T00:50:47.192Z,1007.39
2018-07-25T00:51:22.490Z,1007.37
2018-07-25T00:52:00.525Z,1007.37
2018-07-25T00:52:35.945Z,1007.34
2018-07-25T00:53:14.501Z,1007.35
2018-07-25T00:53:50.127Z,1007.40
2018-07-25T00:54:25.415Z,1007.39
2018-07-25T00:55:00.841Z,1007.38
2018-07-25T00:55:36.038Z,1007.40
2018-07-25T00:56:11.555Z,1007.35
2018-07-25T00:56:46.994Z,1007.38
2018-07-25T00:57:22.400Z,1007.40
2018-07-25T00:57:57.699Z,1007.41
2018-07-25T00:58:34.185Z,1007.41
2018-07-25T00:59:09.542Z,1007.39
2018-07-25T00:59:45.760Z,1007.45
2018-07-25T01:00:23.269Z,1007.42
2018-07-25T01:01:00.269Z,1007.41
2018-07-25T01:01:35.500Z,1007.44
2018-07-25T01:02:10.713Z,1007.42
2018-07-25T01:02:46.119Z,1007.44
2018-07-25T01:03:21.662Z,1007.47
2018-07-25T01:03:57.172Z,1007.45
2018-07-25T01:04:32.309Z,1007.43
2018-07-25T01:05:07.533Z,1007.43
2018-07-25T01:05:42.638Z,1007.43
2018-07-25T01:06:17.958Z,1007.41
2018-07-25T01:06:53.594Z,1007.43
2018-07-25T01:07:29.029Z,1007.43
2018-07-25T01:08:04.372Z,1007.43
2018-07-25T01:08:40.170Z,1007.44
2018-07-25T01:09:15.622Z,1007.45
2018-07-25T01:09:51.139Z,1007.49
2018-07-25T01:10:26.962Z,1007.47
2018-07-25T01:11:04.314Z,1007.51
2018-07-25T01:11:39.641Z,1007.47
2018-07-25T01:12:16.060Z,1007.48
2018-07-25T01:12:52.000Z,1007.54
2018-07-25T01:13:27.608Z,1007.54
2018-07-25T01:14:03.057Z,1007.53
2018-07-25T01:14:38.437Z,1007.55
2018-07-25T01:15:13.862Z,1007.55
2018-07-25T01:15:49.362Z,1007.55
2018-07-25T01:16:24.690Z,1007.55
2018-07-25T01:16:59.853Z,1007.54
2018-07-25T01:17:35.592Z,1007.53
2018-07-25T01:18:10.997Z,1007.51
2018-07-25T01:18:46.699Z,1007.50
2018-07-25T01:19:22.236Z,1007.52
2018-07-25T01:19:57.390Z,1007.54
2018-07-25T01:20:32.702Z,1007.54
2018-07-25T01:21:07.926Z,1007.55
2018-07-25T01:21:43.069Z,1007.52
2018-07-25T01:22:18.416Z,1007.52
2018-07-25T01:22:53.937Z,1007.50
2018-07-25T01:23:29.662Z,1007.50
2018-07-25T01:24:05.005Z,1007.52
2018-07-25T01:24:40.307Z,1007.51
2018-07-25T01:25:15.671Z,1007.52
2018-07-25T01:25:51.170Z,1007.52
2018-07-25T01:26:26.710Z,1007.55
2018-07-25T01:27:02.049Z,1007.53
2018-07-25T01:27:37.468Z,1007.53
2018-07-25T01:28:13.003Z,1007.56
2018-07-25T01:28:48.704Z,1007.56
2018-07-25T01:29:24.155Z,1007.59
2018-07-25T01:30:01.074Z,1007.61
2018-07-25T01:30:36.733Z,1007.61
2018-07-25T01:31:12.056Z,1007.57
2018-07-25T01:31:48.299Z,1007.60
2018-07-25T01:32:23.608Z,1007.60
2018-07-25T01:32:59.210Z,1007.61
2018-07-25T01:33:34.418Z,1007.62
2018-07-25T01:34:09.826Z,1007.64
2018-07-25T01:34:45.540Z,1007.60
2018-07-25T01:35:20.857Z,1007.62
2018-07-25T01:35:56.891Z,1007.61
2018-07-25T01:36:32.449Z,1007.62
2018-07-25T01:37:08.100Z,1007.62
2018-07-25T01:37:43.608Z,1007.66
2018-07-25T01:38:18.842Z,1007.62
2018-07-25T01:38:54.175Z,1007.64
2018-07-25T01:39:29.792Z,1007.64
2018-07-25T01:40:05.750Z,1007.63
2018-07-25T01:40:41.059Z,1007.66
2018-07-25T01:43:56.535Z,1007.69
2018-07-25T01:44:32.134Z,1007.64
2018-07-25T01:45:07.646Z,1007.71
2018-07-25T01:45:42.834Z,1007.71
2018-07-25T01:46:18.319Z,1007.69
2018-07-25T01:46:53.568Z,1007.71
2018-07-25T01:47:28.999Z,1007.67
2018-07-25T01:48:04.615Z,1007.68
2018-07-25T01:48:40.589Z,1007.71
2018-07-25T01:49:16.081Z,1007.73
2018-07-25T01:49:51.260Z,1007.73
2018-07-25T01:50:26.592Z,1007.74
2018-07-25T01:51:02.020Z,1007.72
2018-07-25T01:51:37.758Z,1007.75
2018-07-25T01:52:13.365Z,1007.72
2018-07-25T01:52:48.456Z,1007.71
2018-07-25T01:53:23.779Z,1007.76
2018-07-25T01:56:05.737Z,1007.76
2018-07-25T01:56:41.092Z,1007.77
2018-07-25T01:57:16.304Z,1007.78
2018-07-25T01:57:51.505Z,1007.77
2018-07-25T01:58:28.841Z,1007.70
2018-07-25T01:59:06.915Z,1007.72
2018-07-25T01:59:43.453Z,1007.72
2018-07-25T02:00:18.575Z,1007.74
2018-07-25T02:03:34.152Z,1007.73
2018-07-25T02:04:10.175Z,1007.71
2018-07-25T02:04:46.925Z,1007.75
2018-07-25T02:05:22.314Z,1007.72
2018-07-25T02:05:58.447Z,1007.71
2018-07-25T02:06:35.787Z,1007.71
2018-07-25T02:07:17.089Z,1007.70
2018-07-25T02:07:52.417Z,1007.70
2018-07-25T02:08:27.719Z,1007.71
2018-07-25T02:09:05.215Z,1007.72
2018-07-25T02:09:40.723Z,1007.69
2018-07-25T02:10:16.211Z,1007.74
2018-07-25T02:10:51.541Z,1007.70
2018-07-25T02:11:26.958Z,1007.73
2018-07-25T02:12:02.219Z,1007.75
2018-07-25T02:12:39.561Z,1007.76
2018-07-25T02:13:14.654Z,1007.78
2018-07-25T02:13:49.946Z,1007.78
2018-07-25T02:14:25.562Z,1007.78
2018-07-25T02:15:00.856Z,1007.80
2018-07-25T02:15:36.072Z,1007.78
2018-07-25T02:16:11.462Z,1007.81
2018-07-25T02:16:47.021Z,1007.80
2018-07-25T02:17:25.188Z,1007.77
2018-07-25T02:18:02.796Z,1007.83
2018-07-25T02:18:38.619Z,1007.77
2018-07-25T02:21:53.986Z,1007.80
2018-07-25T02:22:29.327Z,1007.80
2018-07-25T02:23:04.599Z,1007.78
2018-07-25T02:23:40.210Z,1007.77
2018-07-25T02:24:15.402Z,1007.78
2018-07-25T02:24:50.716Z,1007.81
2018-07-25T02:25:26.129Z,1007.81
2018-07-25T02:26:02.448Z,1007.82
2018-07-25T02:26:37.676Z,1007.77
2018-07-25T02:27:12.984Z,1007.81
2018-07-25T02:27:48.490Z,1007.81
2018-07-25T02:28:24.107Z,1007.76
2018-07-25T02:28:59.307Z,1007.75
2018-07-25T02:29:34.636Z,1007.73
2018-07-25T02:30:09.942Z,1007.75
2018-07-25T02:30:45.581Z,1007.77
2018-07-25T02:31:20.956Z,1007.75
2018-07-25T02:31:56.798Z,1007.78
2018-07-25T02:32:32.530Z,1007.75
2018-07-25T02:33:07.617Z,1007.76
2018-07-25T02:33:43.027Z,1007.73
2018-07-25T02:34:18.549Z,1007.77
2018-07-25T02:34:53.970Z,1007.80
2018-07-25T02:35:29.432Z,1007.78
2018-07-25T02:36:04.716Z,1007.79
2018-07-25T02:36:40.166Z,1007.81
2018-07-25T02:37:15.255Z,1007.77
2018-07-25T02:37:51.244Z,1007.76
2018-07-25T02:38:26.482Z,1007.77
2018-07-25T02:39:01.894Z,1007.82
2018-07-25T02:39:37.199Z,1007.77
2018-07-25T02:40:12.636Z,1007.76
2018-07-25T02:40:47.951Z,1007.78
2018-07-25T02:41:23.169Z,1007.78
2018-07-25T02:41:58.611Z,1007.80
2018-07-25T02:42:33.959Z,1007.79
2018-07-25T02:43:09.226Z,1007.77
2018-07-25T02:43:44.683Z,1007.78
2018-07-25T02:44:19.964Z,1007.82
2018-07-25T02:44:55.193Z,1007.85
2018-07-25T02:45:30.423Z,1007.80
2018-07-25T02:46:05.819Z,1007.79
2018-07-25T02:46:41.181Z,1007.83
2018-07-25T02:47:16.866Z,1007.79
2018-07-25T02:47:52.291Z,1007.78
2018-07-25T02:48:27.938Z,1007.82
2018-07-25T02:49:03.231Z,1007.81
2018-07-25T02:49:39.843Z,1007.82
2018-07-25T02:50:15.860Z,1007.84
2018-07-25T02:50:51.006Z,1007.85
2018-07-25T02:51:26.547Z,1007.85
2018-07-25T02:52:01.866Z,1007.86
2018-07-25T02:52:37.409Z,1007.85
2018-07-25T02:53:12.709Z,1007.86
2018-07-25T02:53:48.264Z,1007.87
2018-07-25T02:54:23.472Z,1007.90
2018-07-25T02:54:58.793Z,1007.91
2018-07-25T02:55:34.425Z,1007.88
2018-07-25T02:56:10.112Z,1007.89
2018-07-25T02:56:45.750Z,1007.88
2018-07-25T02:57:20.952Z,1007.91
2018-07-25T02:57:57.077Z,1007.90
2018-07-25T02:58:32.274Z,1007.87
2018-07-25T02:59:07.607Z,1007.91
2018-07-25T02:59:43.740Z,1007.91
2018-07-25T03:00:18.746Z,1007.90
2018-07-25T03:00:54.062Z,1007.92
2018-07-25T03:01:29.568Z,1007.92
2018-07-25T03:02:05.231Z,1007.90
2018-07-25T03:02:40.559Z,1007.93
2018-07-25T03:03:15.942Z,1007.93
2018-07-25T03:03:51.382Z,1007.93
2018-07-25T03:04:26.978Z,1007.93
2018-07-25T03:05:02.287Z,1007.92
2018-07-25T03:05:41.116Z,1007.95
2018-07-25T03:06:16.544Z,1007.95
2018-07-25T03:06:52.296Z,1007.95
2018-07-25T03:07:27.625Z,1007.95
2018-07-25T03:08:02.933Z,1007.95
2018-07-25T03:08:38.559Z,1007.92
2018-07-25T03:09:13.774Z,1007.94
2018-07-25T03:09:49.210Z,1007.98
2018-07-25T03:10:25.291Z,1007.94
2018-07-25T03:11:00.998Z,1007.96
2018-07-25T03:11:36.554Z,1007.97
2018-07-25T03:12:11.964Z,1007.98
2018-07-25T03:12:48.196Z,1008.00
2018-07-25T03:13:23.793Z,1007.96
2018-07-25T03:13:59.508Z,1007.99
2018-07-25T03:14:34.859Z,1007.96
2018-07-25T03:15:10.341Z,1007.98
2018-07-25T03:15:46.778Z,1007.98
2018-07-25T03:16:22.065Z,1007.97
2018-07-25T03:16:57.813Z,1007.97
2018-07-25T03:17:32.795Z,1007.95
2018-07-25T03:18:08.822Z,1007.96
2018-07-25T03:18:44.451Z,1007.97
2018-07-25T03:19:19.585Z,1007.99
2018-07-25T03:19:54.827Z,1008.00
2018-07-25T03:20:30.137Z,1008.01
2018-07-25T03:21:05.500Z,1007.98
2018-07-25T03:21:41.109Z,1007.97
2018-07-25T03:22:16.409Z,1008.03
2018-07-25T03:22:51.837Z,1007.99
2018-07-25T03:23:27.007Z,1007.98
2018-07-25T03:24:02.058Z,1008.00
2018-07-25T03:24:37.477Z,1008.01
2018-07-25T03:25:12.983Z,1007.97
2018-07-25T03:25:48.097Z,1007.97
2018-07-25T03:26:25.809Z,1007.99
2018-07-25T03:27:01.150Z,1007.94
2018-07-25T03:27:36.399Z,1007.99
2018-07-25T03:28:11.909Z,1007.97
2018-07-25T03:28:47.041Z,1007.97
2018-07-25T03:29:24.330Z,1007.97
2018-07-25T03:29:59.753Z,1007.95
2018-07-25T03:30:38.414Z,1007.98
2018-07-25T03:31:13.538Z,1007.97
2018-07-25T03:31:48.778Z,1007.95
2018-07-25T03:32:24.284Z,1008.00
2018-07-25T03:32:59.631Z,1007.99
2018-07-25T03:33:34.738Z,1007.96
2018-07-25T03:34:10.026Z,1007.96
2018-07-25T03:34:46.045Z,1007.95
2018-07-25T03:35:21.442Z,1007.95
2018-07-25T03:35:59.862Z,1007.99
2018-07-25T03:36:35.207Z,1007.98
2018-07-25T03:37:10.492Z,1007.98
2018-07-25T03:37:46.117Z,1007.95
2018-07-25T03:38:21.417Z,1007.97
2018-07-25T03:38:56.856Z,1007.99
2018-07-25T03:39:31.957Z,1007.99
2018-07-25T03:40:07.379Z,1007.97
2018-07-25T03:40:43.519Z,1007.92
2018-07-25T03:41:18.613Z,1007.95
2018-07-25T03:41:53.876Z,1007.95
2018-07-25T03:42:29.474Z,1007.97
2018-07-25T03:43:04.799Z,1007.94
2018-07-25T03:43:40.045Z,1007.95
2018-07-25T03:44:15.727Z,1007.96
2018-07-25T03:44:54.153Z,1007.96
2018-07-25T03:45:29.556Z,1007.95
2018-07-25T03:46:04.794Z,1007.97
2018-07-25T03:46:40.512Z,1007.98
2018-07-25T03:47:15.903Z,1008.00
2018-07-25T03:47:51.332Z,1007.96
2018-07-25T03:48:26.510Z,1007.97
2018-07-25T03:49:01.743Z,1008.01
2018-07-25T03:49:36.953Z,1007.98
2018-07-25T03:50:12.558Z,1007.97
2018-07-25T03:50:50.971Z,1007.98
2018-07-25T03:51:26.378Z,1008.00
2018-07-25T03:52:01.734Z,1007.99
2018-07-25T03:52:37.088Z,1007.99
2018-07-25T03:53:12.616Z,1008.01
2018-07-25T03:53:47.999Z,1007.97
2018-07-25T03:54:23.884Z,1008.00
2018-07-25T03:54:59.402Z,1008.02
2018-07-25T03:55:34.918Z,1007.98
2018-07-25T03:56:10.192Z,1007.98
2018-07-25T03:56:45.657Z,1007.99
2018-07-25T03:57:20.966Z,1008.00
2018-07-25T03:57:56.720Z,1007.99
2018-07-25T03:58:32.610Z,1008.01
2018-07-25T03:59:07.823Z,1007.98
2018-07-25T03:59:43.162Z,1007.97
2018-07-25T04:00:19.782Z,1007.99
2018-07-25T04:00:55.153Z,1007.98
2018-07-25T04:01:30.490Z,1007.99
2018-07-25T04:02:06.090Z,1008.02
2018-07-25T04:02:42.074Z,1008.03
2018-07-25T04:03:17.478Z,1008.00
2018-07-25T04:03:52.918Z,1008.01
2018-07-25T04:04:28.117Z,1008.01
2018-07-25T04:05:03.343Z,1007.99
2018-07-25T04:05:38.620Z,1007.99
2018-07-25T04:06:14.058Z,1007.96
2018-07-25T04:06:49.517Z,1007.99
2018-07-25T04:07:24.616Z,1007.98
2018-07-25T04:08:01.659Z,1007.97
2018-07-25T04:08:37.056Z,1007.96
2018-07-25T04:09:12.354Z,1007.98
2018-07-25T04:09:47.629Z,1007.99
2018-07-25T04:10:22.950Z,1007.99
2018-07-25T04:11:01.291Z,1008.01
2018-07-25T04:11:36.703Z,1007.98
2018-07-25T04:12:12.046Z,1007.98
2018-07-25T04:12:47.461Z,1007.98
2018-07-25T04:13:22.857Z,1007.99
2018-07-25T04:13:58.580Z,1008.02
2018-07-25T04:14:34.030Z,1008.03
2018-07-25T04:15:09.365Z,1008.05
2018-07-25T04:15:44.886Z,1008.05
2018-07-25T04:16:20.095Z,1008.03
2018-07-25T04:16:55.570Z,1008.01
2018-07-25T04:17:31.456Z,1008.03
2018-07-25T04:18:06.567Z,1008.01
2018-07-25T04:18:42.248Z,1008.02
2018-07-25T04:19:17.704Z,1008.05
2018-07-25T04:19:53.311Z,1008.03
2018-07-25T04:20:28.803Z,1008.01
2018-07-25T04:21:04.555Z,1007.97
2018-07-25T04:21:39.907Z,1008.03
2018-07-25T04:22:15.126Z,1008.03
2018-07-25T04:22:50.487Z,1008.05
2018-07-25T04:23:25.594Z,1008.07
2018-07-25T04:24:01.300Z,1008.07
2018-07-25T04:24:36.822Z,1008.05
2018-07-25T04:25:12.318Z,1008.07
2018-07-25T04:25:47.362Z,1008.05
2018-07-25T04:26:22.778Z,1008.07
2018-07-25T04:26:58.258Z,1008.08
2018-07-25T04:27:33.400Z,1008.05
2018-07-25T04:28:08.828Z,1008.07
2018-07-25T04:28:44.343Z,1008.05
2018-07-25T04:29:19.639Z,1008.05
2018-07-25T04:29:54.763Z,1008.07
2018-07-25T04:30:29.779Z,1008.07
2018-07-25T04:31:05.203Z,1008.03
2018-07-25T04:31:40.719Z,1008.06
2018-07-25T04:32:16.177Z,1008.04
2018-07-25T04:32:51.827Z,1008.04
2018-07-25T04:33:27.143Z,1008.09
2018-07-25T04:34:02.467Z,1008.08
2018-07-25T04:34:37.899Z,1008.06
2018-07-25T04:35:13.494Z,1008.14
2018-07-25T04:35:49.188Z,1008.11
2018-07-25T04:36:24.616Z,1008.13
2018-07-25T04:37:00.062Z,1008.14
2018-07-25T04:37:35.541Z,1008.17
2018-07-25T04:38:10.840Z,1008.16
2018-07-25T04:38:46.153Z,1008.14
2018-07-25T04:39:21.452Z,1008.16
2018-07-25T04:39:56.792Z,1008.15
2018-07-25T04:40:32.070Z,1008.15
2018-07-25T04:41:07.496Z,1008.15
2018-07-25T04:41:43.121Z,1008.16
2018-07-25T04:42:18.728Z,1008.17
2018-07-25T04:42:54.286Z,1008.16
2018-07-25T04:43:29.284Z,1008.17
2018-07-25T04:44:04.607Z,1008.19
2018-07-25T04:44:39.921Z,1008.17
2018-07-25T04:45:15.249Z,1008.19
2018-07-25T04:45:50.868Z,1008.18
2018-07-25T04:46:26.377Z,1008.18
2018-07-25T04:47:01.701Z,1008.17
2018-07-25T04:47:37.137Z,1008.20
2018-07-25T04:48:12.554Z,1008.20
2018-07-25T04:48:48.033Z,1008.20
2018-07-25T04:49:23.563Z,1008.21
2018-07-25T04:49:58.885Z,1008.21
2018-07-25T04:50:34.215Z,1008.18
2018-07-25T04:51:09.538Z,1008.21
2018-07-25T04:51:44.946Z,1008.19
2018-07-25T04:52:20.201Z,1008.20
2018-07-25T04:52:55.809Z,1008.23
2018-07-25T04:53:31.256Z,1008.20
2018-07-25T04:54:08.610Z,1008.20
2018-07-25T04:54:43.925Z,1008.20
2018-07-25T04:55:19.571Z,1008.21
2018-07-25T04:55:54.763Z,1008.18
2018-07-25T04:56:30.389Z,1008.19
2018-07-25T04:57:05.921Z,1008.21
2018-07-25T04:57:41.513Z,1008.22
2018-07-25T04:58:16.979Z,1008.24
2018-07-25T04:58:52.460Z,1008.22
2018-07-25T04:59:27.777Z,1008.20
2018-07-25T05:00:03.422Z,1008.22
2018-07-25T05:00:39.048Z,1008.22
2018-07-25T05:01:14.562Z,1008.23
2018-07-25T05:01:49.886Z,1008.24
2018-07-25T05:02:25.185Z,1008.21
2018-07-25T05:03:00.360Z,1008.24
2018-07-25T05:03:35.670Z,1008.27
2018-07-25T05:04:11.375Z,1008.25
2018-07-25T05:04:46.669Z,1008.28
2018-07-25T05:05:21.975Z,1008.29
2018-07-25T05:05:57.446Z,1008.27
2018-07-25T05:06:32.867Z,1008.27
2018-07-25T05:07:08.303Z,1008.28
2018-07-25T05:07:43.769Z,1008.30
2018-07-25T05:08:18.885Z,1008.30
2018-07-25T05:08:54.291Z,1008.32
2018-07-25T05:09:29.619Z,1008.30
2018-07-25T05:10:04.957Z,1008.33
2018-07-25T05:10:40.363Z,1008.30
2018-07-25T05:11:15.885Z,1008.29
2018-07-25T05:11:52.048Z,1008.32
2018-07-25T05:12:27.374Z,1008.34
2018-07-25T05:13:02.678Z,1008.33
2018-07-25T05:13:37.992Z,1008.34
2018-07-25T05:14:13.304Z,1008.35
2018-07-25T05:14:48.409Z,1008.35
2018-07-25T05:15:23.744Z,1008.36
2018-07-25T05:15:59.139Z,1008.36
2018-07-25T05:16:34.387Z,1008.37
2018-07-25T05:17:09.836Z,1008.37
2018-07-25T05:17:45.587Z,1008.38
2018-07-25T05:18:20.807Z,1008.38
2018-07-25T05:18:56.191Z,1008.38
2018-07-25T05:19:31.704Z,1008.42
2018-07-25T05:20:07.433Z,1008.44
2018-07-25T05:20:43.153Z,1008.43
2018-07-25T05:21:18.810Z,1008.45
2018-07-25T05:21:54.459Z,1008.46
2018-07-25T05:22:29.977Z,1008.46
2018-07-25T05:23:05.229Z,1008.46
2018-07-25T05:23:40.936Z,1008.51
2018-07-25T05:24:16.200Z,1008.48
2018-07-25T05:24:51.533Z,1008.49
2018-07-25T05:25:26.841Z,1008.51
2018-07-25T05:26:02.135Z,1008.54
2018-07-25T05:26:37.406Z,1008.53
2018-07-25T05:27:13.256Z,1008.55
2018-07-25T05:27:48.560Z,1008.58
2018-07-25T05:28:23.983Z,1008.56
2018-07-25T05:28:59.679Z,1008.61
2018-07-25T05:29:35.002Z,1008.57
2018-07-25T05:30:10.262Z,1008.60
2018-07-25T05:30:46.456Z,1008.61
2018-07-25T05:31:22.074Z,1008.65
2018-07-25T05:31:57.696Z,1008.62
2018-07-25T05:32:33.242Z,1008.62
2018-07-25T05:33:08.331Z,1008.67
2018-07-25T05:33:43.644Z,1008.66
2018-07-25T05:34:19.058Z,1008.68
2018-07-25T05:34:54.261Z,1008.73
2018-07-25T05:35:29.474Z,1008.69
2018-07-25T05:36:04.685Z,1008.67
2018-07-25T05:36:40.252Z,1008.69
2018-07-25T05:37:15.520Z,1008.72
2018-07-25T05:37:51.040Z,1008.73
2018-07-25T05:38:26.389Z,1008.70
2018-07-25T05:39:01.792Z,1008.72
2018-07-25T05:39:37.420Z,1008.71
2018-07-25T05:40:12.642Z,1008.75
2018-07-25T05:40:48.412Z,1008.74
2018-07-25T05:41:23.957Z,1008.77
2018-07-25T05:41:59.174Z,1008.79
2018-07-25T05:42:34.419Z,1008.74
2018-07-25T05:43:09.643Z,1008.81
2018-07-25T05:43:45.371Z,1008.81
2018-07-25T05:44:20.725Z,1008.80
2018-07-25T05:44:55.839Z,1008.86
2018-07-25T05:45:30.970Z,1008.85
2018-07-25T05:46:06.382Z,1008.88
2018-07-25T05:46:41.618Z,1008.85
2018-07-25T05:47:16.954Z,1008.89
2018-07-25T05:47:52.081Z,1008.87
2018-07-25T05:48:27.719Z,1008.85
2018-07-25T05:49:03.044Z,1008.87
2018-07-25T05:49:38.690Z,1008.88
2018-07-25T05:50:14.146Z,1008.90
2018-07-25T05:50:49.405Z,1008.89
2018-07-25T05:51:24.625Z,1008.88
2018-07-25T05:52:00.261Z,1008.89
2018-07-25T05:52:35.899Z,1008.89
2018-07-25T05:53:11.200Z,1008.87
2018-07-25T05:53:46.617Z,1008.88
2018-07-25T05:54:22.254Z,1008.89
2018-07-25T05:54:57.271Z,1008.90
2018-07-25T05:55:32.484Z,1008.86
2018-07-25T05:56:07.986Z,1008.88
2018-07-25T05:56:43.404Z,1008.88
2018-07-25T05:57:18.868Z,1008.86
2018-07-25T05:57:54.199Z,1008.90
2018-07-25T05:58:29.551Z,1008.89
2018-07-25T05:59:05.064Z,1008.90
2018-07-25T05:59:40.314Z,1008.96
2018-07-25T06:00:15.864Z,1008.93
2018-07-25T06:00:51.159Z,1008.96
2018-07-25T06:01:26.519Z,1008.94
2018-07-25T06:02:01.935Z,1008.94
2018-07-25T06:02:37.566Z,1008.95
2018-07-25T06:03:13.021Z,1008.97
2018-07-25T06:03:48.420Z,1008.98
2018-07-25T06:04:23.883Z,1008.99
2018-07-25T06:04:59.316Z,1008.99
2018-07-25T06:05:34.567Z,1009.00
2018-07-25T06:06:10.137Z,1009.00
2018-07-25T06:06:45.450Z,1009.02
2018-07-25T06:07:20.591Z,1009.01
2018-07-25T06:07:56.703Z,1009.03
2018-07-25T06:08:32.164Z,1009.03
2018-07-25T06:09:07.338Z,1009.02
2018-07-25T06:09:42.704Z,1009.03
2018-07-25T06:10:18.152Z,1009.08
2018-07-25T06:10:53.172Z,1009.07
2018-07-25T06:11:28.527Z,1009.05
2018-07-25T06:12:04.037Z,1009.07
2018-07-25T06:12:39.279Z,1009.08
2018-07-25T06:13:14.807Z,1009.05
2018-07-25T06:13:50.065Z,1009.06
2018-07-25T06:14:28.215Z,1009.07
2018-07-25T06:15:03.732Z,1009.06
2018-07-25T06:15:39.297Z,1009.04
2018-07-25T06:16:14.649Z,1009.03
2018-07-25T06:16:49.698Z,1009.06
2018-07-25T06:17:25.151Z,1009.06
2018-07-25T06:18:00.372Z,1009.05
2018-07-25T06:18:35.669Z,1009.07
2018-07-25T06:19:11.286Z,1009.07
2018-07-25T06:19:46.739Z,1009.06
2018-07-25T06:20:22.181Z,1009.09
2018-07-25T06:20:57.469Z,1009.05
2018-07-25T06:21:33.119Z,1009.05
2018-07-25T06:22:08.542Z,1009.09
2018-07-25T06:22:43.928Z,1009.09
2018-07-25T06:23:19.331Z,1009.04
2018-07-25T06:23:54.550Z,1009.03
2018-07-25T06:24:29.995Z,1009.04
2018-07-25T06:25:05.333Z,1009.02
2018-07-25T06:25:41.660Z,1009.01
2018-07-25T06:26:16.960Z,1009.02
2018-07-25T06:26:52.401Z,1009.07
2018-07-25T06:27:27.721Z,1009.05
2018-07-25T06:28:03.147Z,1009.04
2018-07-25T06:28:38.593Z,1009.07
2018-07-25T06:29:13.919Z,1009.04
2018-07-25T06:29:53.569Z,1009.03
2018-07-25T06:30:28.900Z,1009.03
2018-07-25T06:31:04.116Z,1009.05
2018-07-25T06:31:39.756Z,1009.04
2018-07-25T06:32:16.857Z,1009.05
2018-07-25T06:32:52.291Z,1009.08
2018-07-25T06:33:27.730Z,1009.04
2018-07-25T06:34:03.098Z,1009.06
2018-07-25T06:34:38.507Z,1009.09
2018-07-25T06:35:14.011Z,1009.06
2018-07-25T06:35:49.454Z,1009.11
2018-07-25T06:36:24.792Z,1009.07
2018-07-25T06:37:00.151Z,1009.06
2018-07-25T06:37:35.379Z,1009.09
2018-07-25T06:38:10.678Z,1009.10
2018-07-25T06:38:46.143Z,1009.12
2018-07-25T06:39:21.364Z,1009.13
2018-07-25T06:39:56.716Z,1009.12
2018-07-25T06:40:32.285Z,1009.14
2018-07-25T06:41:07.766Z,1009.11
2018-07-25T06:41:43.327Z,1009.14
2018-07-25T06:42:19.039Z,1009.17
2018-07-25T06:42:54.476Z,1009.17
2018-07-25T06:43:29.857Z,1009.15
2018-07-25T06:44:05.144Z,1009.14
2018-07-25T06:44:41.295Z,1009.12
2018-07-25T06:45:16.833Z,1009.13
2018-07-25T06:45:51.855Z,1009.15
2018-07-25T06:46:27.280Z,1009.14
2018-07-25T06:47:02.712Z,1009.15
2018-07-25T06:47:37.748Z,1009.15
2018-07-25T06:48:13.349Z,1009.15
2018-07-25T06:48:48.683Z,1009.14
2018-07-25T06:49:24.313Z,1009.17
2018-07-25T06:50:00.001Z,1009.13
2018-07-25T06:50:35.470Z,1009.16
2018-07-25T06:51:10.643Z,1009.16
2018-07-25T06:51:46.081Z,1009.17
2018-07-25T06:52:21.686Z,1009.19
2018-07-25T06:52:57.345Z,1009.17
2018-07-25T06:53:32.705Z,1009.19
2018-07-25T06:54:08.019Z,1009.17
2018-07-25T06:54:43.541Z,1009.16
2018-07-25T06:55:18.885Z,1009.14
2018-07-25T06:55:54.315Z,1009.16
2018-07-25T06:56:30.053Z,1009.13
2018-07-25T06:57:05.770Z,1009.15
2018-07-25T06:57:41.424Z,1009.14
2018-07-25T06:58:17.038Z,1009.12
2018-07-25T06:58:52.497Z,1009.14
2018-07-25T06:59:28.066Z,1009.16
2018-07-25T07:00:03.359Z,1009.16
2018-07-25T07:00:39.680Z,1009.20
2018-07-25T07:01:15.200Z,1009.19
2018-07-25T07:01:50.963Z,1009.22
2018-07-25T07:02:26.526Z,1009.20
2018-07-25T07:03:01.826Z,1009.23
2018-07-25T07:03:37.351Z,1009.24
2018-07-25T07:04:12.761Z,1009.23
2018-07-25T07:04:48.676Z,1009.24
2018-07-25T07:05:24.109Z,1009.24
2018-07-25T07:05:59.572Z,1009.26
2018-07-25T07:06:35.313Z,1009.24
2018-07-25T07:07:10.538Z,1009.23
2018-07-25T07:07:46.566Z,1009.21
2018-07-25T07:08:21.779Z,1009.25
2018-07-25T07:08:57.247Z,1009.23
2018-07-25T07:09:32.672Z,1009.22
2018-07-25T07:10:08.083Z,1009.22
2018-07-25T07:10:43.601Z,1009.25
2018-07-25T07:11:18.915Z,1009.26
2018-07-25T07:11:54.171Z,1009.28
2018-07-25T07:12:29.517Z,1009.30
2018-07-25T07:13:04.728Z,1009.29
2018-07-25T07:13:39.781Z,1009.27
2018-07-25T07:14:15.177Z,1009.31
2018-07-25T07:14:50.408Z,1009.31
2018-07-25T07:15:25.958Z,1009.28
2018-07-25T07:16:01.269Z,1009.26
2018-07-25T07:16:36.608Z,1009.28
2018-07-25T07:17:11.918Z,1009.31
2018-07-25T07:17:47.283Z,1009.29
2018-07-25T07:18:22.643Z,1009.33
2018-07-25T07:18:57.982Z,1009.34
2018-07-25T07:19:33.408Z,1009.39
2018-07-25T07:20:08.742Z,1009.33